Time;durP1;ratioP1;P1;durP2;ratioP2;P2;SDS_P1;SDS_P2;PMS_P1;PMS_P2;Temp;Humidity;BMP_temperature;BMP_pressure;BME280_temperature;BME280_humidity;BME280_pressure;Samples;Min_cycle;Max_cycle;Signal;HPM_P1;HPM_P2
2022/01/06 00:00:07;;;;;;;;;29.25;27.75;;;;;5.76;100.00;101650.22;5035669;28;45318;-80
2022/01/06 00:02:33;;;;;;;;;27.50;25.00;;;;;5.73;100.00;101653.44;5024305;28;45232;-81
2022/01/06 00:04:59;;;;;;;;;29.00;25.00;;;;;5.69;100.00;101651.41;5034907;28;45527;-81
2022/01/06 00:07:25;;;;;;;;;29.25;25.50;;;;;5.69;100.00;101652.31;5036407;28;45422;-79
2022/01/06 00:09:51;;;;;;;;;28.50;27.50;;;;;5.69;100.00;101653.97;5019946;28;45447;-79
2022/01/06 00:12:19;;;;;;;;;25.75;25.25;;;;;5.70;100.00;101655.78;5016530;28;45356;-80
2022/01/06 00:23:32;;;;;;;;;30.25;26.50;;;;;5.47;100.00;101656.56;5040292;28;45580;-83
2022/01/06 00:26:00;;;;;;;;;31.50;27.50;;;;;5.43;100.00;101661.44;5037789;28;45336;-82
2022/01/06 00:28:27;;;;;;;;;33.50;33.00;;;;;5.43;100.00;101665.69;5035156;28;45576;-82
2022/01/06 00:30:53;;;;;;;;;32.00;29.25;;;;;5.41;100.00;101660.41;5024580;28;45414;-80
2022/01/06 00:33:19;;;;;;;;;30.75;27.75;;;;;5.41;100.00;101665.53;5017331;28;45400;-80
2022/01/06 00:35:45;;;;;;;;;30.50;28.00;;;;;5.41;100.00;101656.97;5022471;28;45996;-77
2022/01/06 00:38:10;;;;;;;;;30.25;26.75;;;;;5.41;100.00;101667.22;5019391;28;45349;-82
2022/01/06 00:40:37;;;;;;;;;29.25;23.50;;;;;5.40;100.00;101668.88;5021676;28;45431;-78
2022/01/06 00:43:05;;;;;;;;;35.50;31.50;;;;;5.38;100.00;101662.75;5038935;28;45245;-79
2022/01/06 00:45:32;;;;;;;;;29.25;26.00;;;;;5.39;100.00;101669.69;5039371;28;45478;-80
2022/01/06 00:47:58;;;;;;;;;39.00;30.25;;;;;5.41;100.00;101674.94;5025433;28;45435;-78
2022/01/06 00:50:25;;;;;;;;;37.25;30.00;;;;;5.42;100.00;101680.19;5026022;28;45454;-77
2022/01/06 00:52:51;;;;;;;;;32.75;28.25;;;;;5.44;100.00;101680.31;5021919;28;45332;-82
2022/01/06 00:55:17;;;;;;;;;31.75;28.75;;;;;5.47;100.00;101677.97;5039647;28;45407;-83
2022/01/06 00:57:42;;;;;;;;;29.00;24.50;;;;;5.50;100.00;101670.53;5022428;28;45643;-81
2022/01/06 01:00:09;;;;;;;;;33.00;28.00;;;;;5.53;100.00;101672.44;5026667;28;45240;-81
2022/01/06 01:02:35;;;;;;;;;17.50;16.75;;;;;5.53;100.00;101670.78;5018691;28;45517;-81
2022/01/06 01:05:01;;;;;;;;;25.75;24.75;;;;;5.52;100.00;101674.13;5025486;28;45276;-81
2022/01/06 01:07:27;;;;;;;;;28.75;24.25;;;;;5.50;100.00;101675.66;5022343;28;46873;-79
2022/01/06 01:09:52;;;;;;;;;26.25;24.75;;;;;5.48;100.00;101676.31;5038616;28;45544;-84
2022/01/06 01:12:19;;;;;;;;;33.25;24.25;;;;;5.43;100.00;101681.09;5038359;28;45496;-83
2022/01/06 01:14:58;;;;;;;;;32.00;30.00;;;;;5.41;100.00;101682.63;5039321;28;45261;-84
2022/01/06 01:17:26;;;;;;;;;27.00;25.25;;;;;5.35;100.00;101672.78;5039607;28;45391;-85
2022/01/06 01:19:53;;;;;;;;;33.25;31.00;;;;;5.33;100.00;101678.56;5046448;28;45935;-85
2022/01/06 01:22:18;;;;;;;;;29.00;26.25;;;;;5.35;100.00;101671.84;5044951;28;45516;-84
2022/01/06 01:24:44;;;;;;;;;29.75;25.00;;;;;5.36;100.00;101679.72;5022129;28;45352;-80
2022/01/06 01:27:09;;;;;;;;;27.50;22.75;;;;;5.35;100.00;101672.78;5018349;28;46561;-80
2022/01/06 01:29:44;;;;;;;;;25.75;22.75;;;;;5.37;100.00;101681.50;5000080;28;45324;-78
2022/01/06 01:32:10;;;;;;;;;27.75;24.00;;;;;5.38;100.00;101680.72;5019221;28;45438;-77
2022/01/06 01:34:38;;;;;;;;;34.50;28.25;;;;;5.35;100.00;101685.63;5018836;28;45511;-77
2022/01/06 01:37:04;;;;;;;;;24.25;23.25;;;;;5.32;100.00;101687.03;5018849;28;45609;-81
2022/01/06 01:39:29;;;;;;;;;28.50;24.75;;;;;5.26;100.00;101685.75;5000558;28;45515;-79
2022/01/06 01:41:55;;;;;;;;;27.75;25.00;;;;;5.26;100.00;101687.44;5000609;28;45397;-83
2022/01/06 01:44:21;;;;;;;;;31.00;26.75;;;;;5.24;100.00;101695.00;5031414;28;45753;-81
2022/01/06 01:47:00;;;;;;;;;30.75;28.50;;;;;5.25;100.00;101699.38;5019448;28;46099;-80
2022/01/06 01:51:52;;;;;;;;;25.25;23.25;;;;;5.24;100.00;101699.25;5037853;28;45254;-82
2022/01/06 01:54:18;;;;;;;;;33.75;24.50;;;;;5.23;100.00;101700.03;5038543;28;45424;-79
2022/01/06 01:56:45;;;;;;;;;33.50;27.00;;;;;5.23;100.00;101700.03;5038209;28;45992;-78
2022/01/06 01:59:11;;;;;;;;;26.50;24.75;;;;;5.20;100.00;101708.38;5037073;28;45909;-82
2022/01/06 02:01:37;;;;;;;;;24.25;23.50;;;;;5.19;100.00;101714.28;5036714;28;45406;-80
2022/01/06 02:04:03;;;;;;;;;31.50;24.50;;;;;5.18;100.00;101707.38;5030871;28;45385;-84
2022/01/06 02:06:29;;;;;;;;;30.00;25.75;;;;;5.23;100.00;101706.09;5019249;28;47594;-79
2022/01/06 02:08:55;;;;;;;;;28.00;24.25;;;;;5.21;100.00;101699.91;5038002;28;45449;-79
2022/01/06 02:11:21;;;;;;;;;29.75;26.50;;;;;5.22;100.00;101698.22;5038446;28;45426;-78
2022/01/06 02:13:47;;;;;;;;;23.33;23.00;;;;;5.22;100.00;101713.63;5020277;28;45516;-81
2022/01/06 02:16:13;;;;;;;;;29.25;24.50;;;;;5.23;100.00;101718.00;5037874;28;46513;-79
2022/01/06 02:18:39;;;;;;;;;22.75;22.75;;;;;5.19;100.00;101716.84;5039213;28;45181;-78
2022/01/06 02:21:05;;;;;;;;;26.25;25.50;;;;;5.17;100.00;101723.53;5037537;28;46021;-79
2022/01/06 02:23:30;;;;;;;;;56.75;42.00;;;;;5.11;100.00;101723.94;5037382;28;45386;-78
2022/01/06 02:25:56;;;;;;;;;61.75;49.50;;;;;5.04;100.00;101725.88;5036403;28;46070;-79
2022/01/06 02:28:25;;;;;;;;;70.00;53.50;;;;;5.00;100.00;101721.28;5037353;28;45840;-78
2022/01/06 02:30:51;;;;;;;;;75.25;57.25;;;;;4.95;100.00;101718.34;5036384;28;45316;-77
2022/01/06 02:33:20;;;;;;;;;71.50;55.50;;;;;4.93;100.00;101719.88;5037684;28;45609;-79
2022/01/06 02:35:48;;;;;;;;;71.50;54.00;;;;;4.92;100.00;101710.38;5036988;28;46024;-79
2022/01/06 02:38:13;;;;;;;;;72.00;55.50;;;;;4.89;100.00;101713.59;5036638;28;45382;-78
2022/01/06 02:40:39;;;;;;;;;68.25;53.50;;;;;4.85;100.00;101715.78;5020168;28;45318;-77
2022/01/06 02:43:07;;;;;;;;;58.75;45.25;;;;;4.86;100.00;101715.91;5019514;28;45388;-78
2022/01/06 02:45:34;;;;;;;;;44.50;35.50;;;;;4.84;100.00;101720.00;5038444;28;45920;-79
2022/01/06 02:48:01;;;;;;;;;40.00;32.50;;;;;4.81;100.00;101719.72;5039788;28;45422;-78
2022/01/06 02:50:26;;;;;;;;;33.00;26.50;;;;;4.80;100.00;101716.28;5036555;28;45472;-82
2022/01/06 02:52:52;;;;;;;;;30.75;27.25;;;;;4.81;100.00;101717.16;5030099;28;45308;-79
2022/01/06 02:55:18;;;;;;;;;27.25;24.25;;;;;4.88;100.00;101718.56;5023108;28;46013;-83
2022/01/06 02:57:44;;;;;;;;;25.00;25.00;;;;;4.91;100.00;101719.72;5036576;28;45475;-83
2022/01/06 03:00:13;;;;;;;;;23.25;21.50;;;;;4.99;100.00;101728.06;5036934;28;45368;-84
2022/01/06 03:02:41;;;;;;;;;24.25;24.25;;;;;5.07;100.00;101733.81;5037701;28;45552;-82
2022/01/06 03:05:07;;;;;;;;;25.75;23.25;;;;;5.10;100.00;101741.78;5035933;28;45919;-84
2022/01/06 03:07:33;;;;;;;;;25.75;22.00;;;;;5.13;100.00;101739.44;5036690;28;45868;-80
2022/01/06 03:10:02;;;;;;;;;27.25;26.00;;;;;5.18;100.00;101748.44;5033719;28;45608;-79
2022/01/06 03:12:39;;;;;;;;;26.25;24.25;;;;;5.15;100.00;101750.75;5038050;28;45319;-79
2022/01/06 03:15:07;;;;;;;;;27.00;23.00;;;;;5.16;100.00;101757.69;5020182;28;46777;-80
2022/01/06 03:17:34;;;;;;;;;33.75;27.00;;;;;5.12;100.00;101747.94;5037655;28;45343;-82
2022/01/06 03:20:00;;;;;;;;;23.25;19.75;;;;;5.12;100.00;101750.50;5036905;28;45401;-79
2022/01/06 03:22:25;;;;;;;;;32.50;22.25;;;;;5.10;100.00;101746.91;5036827;28;45389;-80
2022/01/06 03:24:51;;;;;;;;;28.50;24.75;;;;;5.09;100.00;101750.25;5037089;28;45913;-82
2022/01/06 03:27:17;;;;;;;;;24.00;22.50;;;;;5.09;100.00;101745.13;5036724;28;45323;-83
2022/01/06 03:29:42;;;;;;;;;27.00;20.75;;;;;5.02;100.00;101746.28;5036909;28;45316;-80
2022/01/06 03:32:08;;;;;;;;;19.75;15.00;;;;;4.96;100.00;101749.25;5036175;28;45462;-78
2022/01/06 03:34:34;;;;;;;;;24.00;22.50;;;;;4.90;100.00;101747.84;5035997;28;46401;-79
2022/01/06 03:37:01;;;;;;;;;22.00;21.00;;;;;4.85;100.00;101752.59;5035815;28;45902;-81
2022/01/06 03:39:27;;;;;;;;;18.25;18.25;;;;;4.85;100.00;101751.69;5036717;28;45422;-80
2022/01/06 03:41:53;;;;;;;;;34.75;24.50;;;;;4.86;100.00;101756.94;5037526;28;45449;-82
2022/01/06 03:44:19;;;;;;;;;16.25;16.25;;;;;4.86;100.00;101754.38;5039054;28;45642;-81
2022/01/06 03:46:44;;;;;;;;;20.75;17.50;;;;;4.90;100.00;101751.31;5037398;28;45576;-82
2022/01/06 03:49:10;;;;;;;;;16.75;16.50;;;;;4.90;100.00;101750.41;5035769;28;45221;-82
2022/01/06 03:51:35;;;;;;;;;19.25;17.25;;;;;4.94;100.00;101744.75;5035282;28;45495;-80
2022/01/06 03:54:01;;;;;;;;;17.00;15.75;;;;;5.01;100.00;101752.19;5035106;28;45318;-83
2022/01/06 03:56:27;;;;;;;;;24.75;21.50;;;;;5.06;100.00;101750.00;5028453;28;45754;-81
2022/01/06 03:58:52;;;;;;;;;15.75;12.75;;;;;5.09;100.00;101756.28;5029790;28;45501;-80
2022/01/06 04:01:18;;;;;;;;;19.75;15.25;;;;;5.08;100.00;101759.59;5034856;28;45529;-80
2022/01/06 04:03:47;;;;;;;;;13.75;11.75;;;;;5.05;100.00;101754.25;5036054;28;45249;-79
2022/01/06 04:06:16;;;;;;;;;18.00;15.75;;;;;5.08;100.00;101769.00;5035526;28;45400;-82
2022/01/06 04:08:42;;;;;;;;;20.00;16.50;;;;;5.06;100.00;101757.69;5038121;28;45229;-82
2022/01/06 04:11:07;;;;;;;;;17.75;17.75;;;;;5.06;100.00;101753.47;5039901;28;45450;-80
2022/01/06 04:13:34;;;;;;;;;23.50;14.75;;;;;5.07;100.00;101762.97;5039677;28;45266;-82
2022/01/06 04:16:02;;;;;;;;;13.25;13.25;;;;;5.03;100.00;101757.44;5038831;28;45426;-80
2022/01/06 04:18:28;;;;;;;;;17.00;15.25;;;;;4.99;100.00;101761.41;5039614;28;45362;-79
2022/01/06 04:20:54;;;;;;;;;21.00;18.50;;;;;4.92;100.00;101760.00;5040151;28;45430;-81
2022/01/06 04:23:20;;;;;;;;;19.00;15.75;;;;;4.88;100.00;101757.06;5039119;28;45328;-80
2022/01/06 04:25:45;;;;;;;;;24.75;16.25;;;;;4.89;100.00;101754.66;5020766;28;45342;-79
2022/01/06 04:28:11;;;;;;;;;20.25;17.00;;;;;4.95;100.00;101761.97;5039122;28;45529;-81
2022/01/06 04:30:37;;;;;;;;;19.75;14.75;;;;;4.98;100.00;101769.00;5039814;28;45427;-80
2022/01/06 04:33:02;;;;;;;;;24.25;14.50;;;;;4.99;100.00;101751.16;5038177;28;46186;-82
2022/01/06 04:35:28;;;;;;;;;23.50;15.50;;;;;4.99;100.00;101758.84;5039765;28;45215;-81
2022/01/06 04:37:54;;;;;;;;;19.50;14.25;;;;;4.98;100.00;101762.19;5021471;28;45355;-82
2022/01/06 04:40:19;;;;;;;;;12.00;11.00;;;;;5.01;100.00;101759.00;5040976;28;45911;-82
2022/01/06 04:42:45;;;;;;;;;12.00;11.00;;;;;4.97;100.00;101762.94;5021127;28;45788;-83
2022/01/06 04:45:10;;;;;;;;;23.00;13.25;;;;;4.94;100.00;101766.19;5039721;28;45363;-82
2022/01/06 04:47:36;;;;;;;;;16.00;14.50;;;;;4.84;100.00;101758.47;5038168;28;45494;-81
2022/01/06 04:50:04;;;;;;;;;9.75;8.00;;;;;4.78;100.00;101758.88;5019066;28;45645;-80
2022/01/06 04:52:30;;;;;;;;;16.75;12.75;;;;;4.75;100.00;101753.47;5037193;28;45752;-82
2022/01/06 04:54:56;;;;;;;;;16.50;15.25;;;;;4.75;100.00;101752.59;5038794;28;45323;-82
2022/01/06 04:57:22;;;;;;;;;13.50;11.00;;;;;4.71;100.00;101754.00;5041746;28;45458;-81
2022/01/06 04:59:48;;;;;;;;;18.50;15.75;;;;;4.70;100.00;101761.59;5028841;28;45482;-79
2022/01/06 05:02:13;;;;;;;;;15.75;14.50;;;;;4.70;100.00;101761.59;5019567;28;45417;-80
2022/01/06 05:04:39;;;;;;;;;15.25;14.75;;;;;4.72;100.00;101765.16;5022453;28;45282;-81
2022/01/06 05:07:05;;;;;;;;;15.00;12.25;;;;;4.74;100.00;101774.78;5021865;28;45528;-81
2022/01/06 05:09:30;;;;;;;;;16.25;14.50;;;;;4.76;100.00;101769.78;5042211;28;45539;-81
2022/01/06 05:11:56;;;;;;;;;14.75;14.25;;;;;4.77;100.00;101776.72;5029910;28;46665;-83
2022/01/06 05:14:22;;;;;;;;;13.25;13.25;;;;;4.79;100.00;101772.63;5020690;28;45662;-82
2022/01/06 05:16:48;;;;;;;;;16.25;13.75;;;;;4.83;100.00;101778.91;5020016;28;45399;-84
2022/01/06 05:19:13;;;;;;;;;17.75;14.25;;;;;4.87;100.00;101794.66;5020013;28;46604;-82
2022/01/06 05:21:39;;;;;;;;;21.00;13.75;;;;;4.89;100.00;101789.66;5019172;28;45991;-84
2022/01/06 05:24:12;;;;;;;;;19.00;16.75;;;;;4.92;100.00;101795.94;5018930;28;45531;-81
2022/01/06 05:26:38;;;;;;;;;20.75;16.25;;;;;4.93;100.00;101789.16;5019624;28;45292;-83
2022/01/06 05:29:09;;;;;;;;;17.75;15.75;;;;;4.94;100.00;101790.94;5020068;28;45581;-81
2022/01/06 05:31:35;;;;;;;;;19.75;17.00;;;;;4.94;100.00;101796.97;5019755;28;46725;-82
2022/01/06 05:34:01;;;;;;;;;18.00;16.00;;;;;4.95;100.00;101793.63;5001858;28;45980;-82
2022/01/06 05:36:26;;;;;;;;;25.00;18.75;;;;;5.00;100.00;101794.00;5021497;28;45347;-81
2022/01/06 05:38:52;;;;;;;;;20.00;18.00;;;;;4.99;100.00;101792.22;5018981;28;45546;-80
2022/01/06 05:41:19;;;;;;;;;24.75;19.75;;;;;4.99;100.00;101797.34;5029415;28;45528;-78
2022/01/06 05:43:44;;;;;;;;;23.75;18.00;;;;;4.99;100.00;101812.75;5028804;28;45886;-84
2022/01/06 05:46:10;;;;;;;;;22.00;17.50;;;;;4.98;100.00;101810.06;5001995;28;45341;-81
2022/01/06 05:48:36;;;;;;;;;21.25;17.50;;;;;4.93;100.00;101800.31;5039042;28;45388;-81
2022/01/06 05:51:01;;;;;;;;;16.50;16.00;;;;;4.92;100.00;101813.91;5028211;28;46134;-80
2022/01/06 05:53:28;;;;;;;;;17.75;17.00;;;;;4.89;100.00;101813.66;5028088;28;45584;-81
2022/01/06 05:55:53;;;;;;;;;20.00;16.00;;;;;4.85;100.00;101809.03;5038097;28;45411;-80
2022/01/06 05:58:19;;;;;;;;;18.25;14.75;;;;;4.79;100.00;101805.97;5036805;28;45636;-80
2022/01/06 06:00:45;;;;;;;;;26.75;18.00;;;;;4.76;100.00;101811.72;5037743;28;46095;-80
2022/01/06 06:03:10;;;;;;;;;16.50;15.00;;;;;4.71;100.00;101812.09;5042260;28;45159;-81
2022/01/06 06:05:36;;;;;;;;;16.00;15.75;;;;;4.68;100.00;101817.00;5016890;28;45305;-83
2022/01/06 06:08:02;;;;;;;;;22.00;16.75;;;;;4.64;100.00;101820.97;5024434;28;45307;-80
2022/01/06 06:10:27;;;;;;;;;25.25;17.75;;;;;4.61;100.00;101826.72;5022739;28;47022;-81
2022/01/06 06:12:53;;;;;;;;;16.00;15.25;;;;;4.61;100.00;101833.50;5018709;28;45503;-83
2022/01/06 06:15:22;;;;;;;;;19.25;16.25;;;;;4.64;100.00;101837.25;5038251;28;45394;-79
2022/01/06 06:17:48;;;;;;;;;19.25;16.50;;;;;4.68;100.00;101838.38;5035156;28;45300;-80
2022/01/06 06:20:14;;;;;;;;;22.00;20.25;;;;;4.69;100.00;101839.31;5017973;28;46368;-81
2022/01/06 06:22:39;;;;;;;;;21.25;16.00;;;;;4.69;100.00;101834.19;5018497;28;45412;-84
2022/01/06 06:25:06;;;;;;;;;22.50;18.25;;;;;4.74;100.00;101840.56;5020654;28;45355;-84
2022/01/06 06:27:31;;;;;;;;;17.50;15.25;;;;;4.76;100.00;101837.38;5036787;28;45316;-80
2022/01/06 06:29:57;;;;;;;;;26.75;22.25;;;;;4.80;100.00;101843.69;5037250;28;45292;-84
2022/01/06 06:32:25;;;;;;;;;20.75;19.75;;;;;4.83;100.00;101848.16;5037057;28;45294;-84
2022/01/06 06:34:52;;;;;;;;;14.25;12.50;;;;;4.85;100.00;101856.91;5036133;28;45237;-85
2022/01/06 06:37:18;;;;;;;;;26.25;25.25;;;;;4.89;100.00;101854.72;5033169;28;45543;-83
2022/01/06 06:39:44;;;;;;;;;17.00;16.75;;;;;4.92;100.00;101848.94;5027596;28;45164;-80
2022/01/06 06:42:10;;;;;;;;;18.75;17.00;;;;;4.93;100.00;101853.31;5042648;28;45410;-82
2022/01/06 06:44:36;;;;;;;;;23.00;19.25;;;;;4.96;100.00;101851.00;5023813;28;45342;-81
2022/01/06 06:47:01;;;;;;;;;17.50;17.00;;;;;4.99;100.00;101842.66;5021587;28;45469;-77
2022/01/06 06:49:28;;;;;;;;;22.25;19.75;;;;;5.03;100.00;101852.41;5028338;28;45461;-83
2022/01/06 06:51:55;;;;;;;;;19.50;18.00;;;;;5.04;100.00;101855.13;5024445;28;45983;-82
2022/01/06 06:54:21;;;;;;;;;21.00;13.00;;;;;5.06;100.00;101852.66;5011779;28;45554;-82
2022/01/06 06:56:47;;;;;;;;;20.25;16.75;;;;;5.06;100.00;101866.41;5031204;28;45670;-82
2022/01/06 06:59:12;;;;;;;;;18.75;18.75;;;;;5.08;100.00;101862.28;5027497;28;46367;-85
2022/01/06 07:01:38;;;;;;;;;21.75;15.25;;;;;5.08;100.00;101861.41;5028916;28;45256;-81
2022/01/06 07:04:04;;;;;;;;;18.00;14.25;;;;;5.05;100.00;101873.97;5037459;28;45770;-82
2022/01/06 07:06:29;;;;;;;;;19.50;18.00;;;;;5.05;100.00;101861.13;5041336;28;45327;-83
2022/01/06 07:08:55;;;;;;;;;23.25;18.00;;;;;5.07;100.00;101867.28;5039813;28;46029;-81
2022/01/06 07:11:22;;;;;;;;;19.50;15.50;;;;;5.08;100.00;101871.66;5038409;28;45471;-81
2022/01/06 07:13:48;;;;;;;;;21.25;17.50;;;;;5.05;100.00;101867.19;5036616;28;45489;-77
2022/01/06 07:16:13;;;;;;;;;24.75;21.25;;;;;5.05;100.00;101868.81;5000236;28;45384;-80
2022/01/06 07:18:39;;;;;;;;;32.75;25.50;;;;;5.04;100.00;101873.06;5030411;28;45489;-77
2022/01/06 07:21:05;;;;;;;;;29.25;18.75;;;;;5.06;100.00;101874.13;5057300;28;45378;-81
2022/01/06 07:23:31;;;;;;;;;19.50;16.25;;;;;5.08;100.00;101876.78;5038210;28;45231;-83
2022/01/06 07:25:57;;;;;;;;;23.00;18.00;;;;;5.08;100.00;101872.53;5023277;28;45475;-86
2022/01/06 07:28:22;;;;;;;;;24.00;18.75;;;;;5.11;100.00;101867.69;5025345;28;46002;-79
2022/01/06 07:30:48;;;;;;;;;18.00;15.00;;;;;5.14;100.00;101869.59;5029864;28;45615;-84
2022/01/06 07:33:14;;;;;;;;;19.75;19.50;;;;;5.19;100.00;101880.25;5036254;28;45401;-76
2022/01/06 07:35:40;;;;;;;;;24.00;22.25;;;;;5.21;100.00;101871.94;5047349;28;45624;-82
2022/01/06 07:38:06;;;;;;;;;22.75;20.00;;;;;5.25;100.00;101871.38;5035705;28;45704;-82
2022/01/06 07:40:31;;;;;;;;;24.00;21.75;;;;;5.30;100.00;101878.59;5035379;28;45359;-78
2022/01/06 07:42:57;;;;;;;;;21.25;18.00;;;;;5.31;100.00;101872.69;5034776;28;45460;-78
2022/01/06 07:45:23;;;;;;;;;21.00;17.25;;;;;5.32;100.00;101880.50;5035801;28;45651;-86
2022/01/06 07:47:57;;;;;;;;;24.50;18.50;;;;;5.36;100.00;101884.22;5035908;28;45557;-80
2022/01/06 07:50:27;;;;;;;;;23.50;21.25;;;;;5.38;100.00;101887.81;5017387;28;46022;-79
2022/01/06 07:52:53;;;;;;;;;28.50;24.75;;;;;5.40;100.00;101891.44;5036127;28;45466;-82
2022/01/06 07:55:19;;;;;;;;;23.00;19.00;;;;;5.40;100.00;101892.31;5036026;28;45602;-85
2022/01/06 07:57:44;;;;;;;;;25.75;22.25;;;;;5.43;100.00;101886.56;5032946;28;46021;-82
2022/01/06 08:00:10;;;;;;;;;21.25;17.50;;;;;5.43;100.00;101889.13;5034970;28;45504;-84
2022/01/06 08:02:36;;;;;;;;;23.75;18.50;;;;;5.43;100.00;101886.56;5038326;28;45510;-84
2022/01/06 08:05:03;;;;;;;;;23.25;23.00;;;;;5.41;100.00;101886.41;5041112;28;45425;-85
2022/01/06 08:07:29;;;;;;;;;22.00;19.50;;;;;5.42;100.00;101877.94;5036489;28;46197;-79
2022/01/06 08:09:54;;;;;;;;;31.25;24.25;;;;;5.43;100.00;101887.44;5033886;28;45416;-84
2022/01/06 08:12:21;;;;;;;;;14.00;14.00;;;;;5.46;100.00;101886.78;5029987;28;45719;-82
2022/01/06 08:14:47;;;;;;;;;20.50;19.50;;;;;5.48;100.00;101886.94;5028671;28;45586;-79
2022/01/06 08:17:13;;;;;;;;;27.00;20.75;;;;;5.50;100.00;101886.28;5030698;28;45329;-76
2022/01/06 08:19:39;;;;;;;;;24.25;20.50;;;;;5.53;100.00;101894.25;5017682;28;45426;-81
2022/01/06 08:22:04;;;;;;;;;28.75;22.25;;;;;5.56;100.00;101894.47;5035193;28;45500;-79
2022/01/06 08:24:30;;;;;;;;;21.25;19.25;;;;;5.58;100.00;101898.06;5015824;28;45563;-78
2022/01/06 08:26:55;;;;;;;;;21.75;17.25;;;;;5.61;100.00;101897.47;5027709;28;45525;-76
2022/01/06 08:29:21;;;;;;;;;26.00;23.50;;;;;5.65;100.00;101904.63;5034949;28;45260;-78
2022/01/06 08:31:47;;;;;;;;;26.50;23.75;;;;;5.67;100.00;101903.09;5035087;28;45387;-77
2022/01/06 08:34:13;;;;;;;;;24.75;22.75;;;;;5.70;100.00;101912.72;5014589;28;45629;-75
2022/01/06 08:36:38;;;;;;;;;18.25;18.25;;;;;5.74;100.00;101907.06;5022791;28;46080;-81
2022/01/06 08:39:04;;;;;;;;;25.50;22.25;;;;;5.77;100.00;101909.91;5030368;28;45503;-79
2022/01/06 08:41:29;;;;;;;;;22.25;18.50;;;;;5.80;100.00;101910.13;5033248;28;45402;-83
2022/01/06 08:43:55;;;;;;;;;18.75;18.25;;;;;5.81;100.00;101908.47;5035440;28;45306;-86
2022/01/06 08:46:21;;;;;;;;;19.75;18.00;;;;;5.84;100.00;101900.97;5014755;28;47574;-82
2022/01/06 08:48:46;;;;;;;;;21.75;19.00;;;;;5.88;100.00;101905.63;5032301;28;45523;-80
2022/01/06 08:51:12;;;;;;;;;31.75;25.25;;;;;5.91;100.00;101908.44;5032826;28;45508;-82
2022/01/06 08:53:38;;;;;;;;;21.75;20.25;;;;;5.93;100.00;101912.03;5034489;28;45211;-79
2022/01/06 08:56:04;;;;;;;;;32.75;23.50;;;;;5.94;100.00;101911.22;5037196;28;45598;-81
2022/01/06 08:58:29;;;;;;;;;24.50;21.25;;;;;5.93;100.00;101909.47;5037658;28;45807;-82
2022/01/06 09:00:55;;;;;;;;;29.00;24.25;;;;;5.95;100.00;101907.00;5038473;28;45362;-84
2022/01/06 09:03:21;;;;;;;;;25.50;21.75;;;;;5.96;100.00;101913.94;5028682;28;45569;-82
2022/01/06 09:05:46;;;;;;;;;26.50;25.00;;;;;5.99;100.00;101912.56;5037680;28;45919;-82
2022/01/06 09:08:12;;;;;;;;;25.25;18.00;;;;;6.02;100.00;101920.53;5038359;28;45472;-81
2022/01/06 09:10:38;;;;;;;;;32.75;25.75;;;;;6.07;100.00;101918.31;5039928;28;45334;-82
2022/01/06 09:13:04;;;;;;;;;26.75;26.25;;;;;6.11;100.00;101916.91;5038920;28;45335;-83
2022/01/06 09:15:30;;;;;;;;;26.75;25.00;;;;;6.16;100.00;101918.16;5038718;28;45414;-81
2022/01/06 09:17:56;;;;;;;;;34.00;29.25;;;;;6.18;100.00;101917.53;5038123;28;45433;-82
2022/01/06 09:20:22;;;;;;;;;34.00;30.50;;;;;6.24;100.00;101918.78;5038686;28;45331;-81
2022/01/06 09:22:48;;;;;;;;;28.50;24.50;;;;;6.26;100.00;101924.94;5038285;28;45501;-82
2022/01/06 09:25:15;;;;;;;;;32.75;25.25;;;;;6.28;100.00;101921.72;5039558;28;45336;-82
2022/01/06 09:27:42;;;;;;;;;31.00;20.75;;;;;6.30;100.00;101919.28;5039115;28;45952;-80
2022/01/06 09:30:09;;;;;;;;;34.50;27.25;;;;;6.32;100.00;101923.75;5038236;28;45326;-78
2022/01/06 09:32:36;;;;;;;;;29.50;24.75;;;;;6.34;100.00;101929.03;5020257;28;45419;-78
2022/01/06 09:35:03;;;;;;;;;20.75;17.50;;;;;6.34;100.00;101931.59;5038227;28;45349;-82
2022/01/06 09:37:29;;;;;;;;;33.75;29.75;;;;;6.38;100.00;101935.31;5039441;28;45337;-83
2022/01/06 09:39:55;;;;;;;;;24.50;24.00;;;;;6.40;100.00;101926.94;5041484;28;45263;-81
2022/01/06 09:42:21;;;;;;;;;31.25;28.50;;;;;6.41;100.00;101943.28;5021571;28;45562;-82
2022/01/06 09:44:48;;;;;;;;;31.75;29.50;;;;;6.41;100.00;101944.19;5041921;28;46003;-84
2022/01/06 09:47:15;;;;;;;;;36.25;29.50;;;;;6.43;100.00;101936.59;5043671;28;45500;-82
2022/01/06 09:49:44;;;;;;;;;31.25;26.50;;;;;6.44;100.00;101938.38;5046137;28;45343;-80
2022/01/06 09:52:10;;;;;;;;;33.50;30.25;;;;;6.43;100.00;101942.59;5049641;28;45555;-82
2022/01/06 09:54:38;;;;;;;;;35.50;26.75;;;;;6.44;100.00;101946.97;5047366;28;46150;-81
2022/01/06 09:57:04;;;;;;;;;33.75;27.00;;;;;6.45;100.00;101942.75;5045535;28;45426;-81
2022/01/06 09:59:30;;;;;;;;;30.00;28.75;;;;;6.47;100.00;101951.50;5040618;28;45462;-80
2022/01/06 10:01:56;;;;;;;;;28.25;24.00;;;;;6.47;100.00;101949.81;5013133;28;45305;-83
2022/01/06 10:04:29;;;;;;;;;33.00;28.50;;;;;6.50;100.00;101957.78;5029853;28;45870;-81
2022/01/06 10:07:05;;;;;;;;;27.50;25.25;;;;;6.50;100.00;101956.88;5034931;28;45402;-82
2022/01/06 10:09:34;;;;;;;;;35.25;29.00;;;;;6.50;100.00;101954.28;5038099;28;45309;-81
2022/01/06 10:12:03;;;;;;;;;32.00;27.25;;;;;6.52;100.00;101951.88;5037480;28;45380;-82
2022/01/06 10:14:42;;;;;;;;;23.50;21.75;;;;;6.56;100.00;101964.19;5036715;28;46175;-82
2022/01/06 10:17:10;;;;;;;;;28.00;27.50;;;;;6.55;100.00;101950.44;5026678;28;45919;-84
2022/01/06 10:19:40;;;;;;;;;27.75;23.75;;;;;6.57;100.00;101950.53;5034018;28;45357;-81
2022/01/06 10:22:13;;;;;;;;;30.00;24.75;;;;;6.50;100.00;101949.16;5036686;28;45430;-80
2022/01/06 10:24:42;;;;;;;;;25.25;23.25;;;;;6.46;100.00;101949.69;5034332;28;45532;-80
2022/01/06 10:27:09;;;;;;;;;30.00;26.25;;;;;6.45;100.00;101956.50;5019954;28;46205;-81
2022/01/06 10:29:41;;;;;;;;;25.25;22.25;;;;;6.50;100.00;101959.44;5037345;28;45441;-82
2022/01/06 10:32:20;;;;;;;;;27.00;24.00;;;;;6.53;100.00;101954.53;5017721;28;45322;-81
2022/01/06 10:34:49;;;;;;;;;30.75;24.75;;;;;6.58;100.00;101957.47;5036827;28;45686;-81
2022/01/06 10:37:21;;;;;;;;;18.00;16.75;;;;;6.63;100.00;101956.19;5036666;28;45842;-81
2022/01/06 10:39:48;;;;;;;;;21.75;20.00;;;;;6.65;100.00;101962.31;5037162;28;45456;-81
2022/01/06 10:42:14;;;;;;;;;25.50;19.50;;;;;6.68;100.00;101952.28;5038237;28;45504;-81
2022/01/06 10:44:46;;;;;;;;;24.75;19.25;;;;;6.73;100.00;101950.06;5038752;28;45471;-81
2022/01/06 10:47:12;;;;;;;;;21.00;20.00;;;;;6.72;100.00;101935.41;5027368;28;45952;-76
2022/01/06 10:49:41;;;;;;;;;21.75;20.00;;;;;6.70;100.00;101943.00;5006195;28;45373;-82
2022/01/06 10:52:06;;;;;;;;;22.50;18.25;;;;;6.73;100.00;101939.78;5050491;28;45276;-81
2022/01/06 10:54:36;;;;;;;;;17.50;13.75;;;;;6.71;100.00;101938.75;5051580;28;45446;-82
2022/01/06 10:57:09;;;;;;;;;16.50;15.50;;;;;6.72;100.00;101935.41;5044839;28;46121;-82
2022/01/06 10:59:36;;;;;;;;;18.75;18.50;;;;;6.73;100.00;101932.06;5036189;28;45368;-88
2022/01/06 11:02:03;;;;;;;;;20.00;18.50;;;;;6.75;100.00;101917.63;5043097;28;45401;-90
2022/01/06 11:04:29;;;;;;;;;21.00;19.50;;;;;6.75;100.00;101926.25;5040143;28;45438;-89
2022/01/06 11:06:55;;;;;;;;;17.50;15.25;;;;;6.75;100.00;101922.78;5037690;28;45450;-81
2022/01/06 11:09:21;;;;;;;;;20.00;15.50;;;;;6.73;100.00;101909.81;5035567;28;45518;-80
2022/01/06 11:14:28;;;;;;;;;14.75;13.00;;;;;6.69;100.00;101902.63;5035426;28;45771;-82
2022/01/06 11:16:53;;;;;;;;;15.25;13.00;;;;;6.72;100.00;101905.44;5026668;28;45570;-82
2022/01/06 11:19:22;;;;;;;;;28.75;20.75;;;;;6.76;100.00;101904.88;5033437;28;45422;-83